メインページ
METAR-TAF:

METAR-TAF

空港 :

ボゴタ, コロンビア

エルドラド国際空港

緯度: 04-43N, 経度: 074-09W, 海抜: 2547m

現時点の気象観測

当レポートは33分前の15:00(UTC)に作成
の風 7kt
気温 17°C
湿度 55%
気圧 1029 hPa
視程10km以上
高度2000ftの雲は散在している
高度20000ftの雲は散在している
近辺でにわか雨

METAR: SKBO 251500Z 17007KT 9999 VCSH SCT020 SCT200 17/08 A3040 RMKVCH/E/SE

時間: 10:33 (15:33 UTC)

予報

当レポートは4時間33分前の11:00(UTC)に作成
予報は25日の 12時(UTC)から 26日の 12時(UTC)まで有効
東/北東の風 6kt
視程10km以上
高度2000ftの雲は散在している
高度20000ftの雲は散在している
25日の 12時(UTC)から 25日の 13時(UTC)まで一時的に
視程: 8000m
高度1500ftの雲は散在している
近辺で霧, 小霧雨
25日の 17時(UTC)から 25日の 22時(UTC)まで一時的に
南東の風 10kt
視程: 8000m
高度1800ftの雲は散在している, 塔状積雲.
26日の 00時(UTC)から 26日の 02時(UTC)まで一時的に
視程: 8000m
高度1700ftの雲は散在している, 塔状積雲.
(弱い) 霧雨, 雨
26日の 09時(UTC)から 26日の 12時(UTC)まで一時的に
視程: 7000m
高度1500ftの雲は散在している
近辺で霧

TAF: SKBO 251100Z 2512/2612 06006KT 9999 SCT020 SCT200 TEMPO 2512/2513 8000 VCFG -DZ SCT015 TEMPO 2517/2522 14010KT 8000 RA SCT018TCU TEMPO 2600/2602 8000 - DZRA SCT017TCU TEMPO 2609/2612 7000 VCFG SCT015 TX19/2518Z TN10/2611Z

4,000以上の空港の気象観測と天気予報(METAR報とTAF報)

利用可能な観測所は地図上に黄色い丸と赤い丸で示す。

丸の上にカーソルを重ねると観測所名を参照できる。

次にクリックすると気象観測と天気予報を参照できる。

マップの切り替え:黒色「×」印の緑ボタンをクリックして拡大、「-」印の緑ボタンをクリックして縮小、緑色の三角印をクリックして隣りの地図に切り替え


METAR-TAF: